Time;durP1;ratioP1;P1;durP2;ratioP2;P2;SDS_P1;SDS_P2;PMS_P1;PMS_P2;Temp;Humidity;BMP_temperature;BMP_pressure;BME280_temperature;BME280_humidity;BME280_pressure;Samples;Min_cycle;Max_cycle;Signal;HPM_P1;HPM_P2
2022/01/09 00:00:30;;;;;;;11.02;6.05;;;3.80;99.90;;;;;;5128310;27;20613;-81
2022/01/09 00:02:57;;;;;;;11.80;6.13;;;3.80;99.90;;;;;;5130363;27;20050;-83
2022/01/09 00:05:23;;;;;;;11.05;6.68;;;3.80;99.90;;;;;;5129778;27;20406;-81
2022/01/09 00:07:49;;;;;;;13.90;7.15;;;4.00;99.90;;;;;;5099297;27;20043;-81
2022/01/09 00:10:16;;;;;;;10.25;6.10;;;3.80;99.90;;;;;;5122377;27;20045;-81
2022/01/09 00:12:42;;;;;;;10.63;6.13;;;3.80;99.90;;;;;;5114642;27;20045;-81
2022/01/09 00:15:09;;;;;;;11.90;6.13;;;3.80;99.90;;;;;;5128566;27;20051;-82
2022/01/09 00:17:34;;;;;;;13.63;6.25;;;3.80;99.90;;;;;;5129826;27;20031;-81
2022/01/09 00:20:00;;;;;;;10.82;6.20;;;3.80;99.90;;;;;;5132439;27;20102;-81
2022/01/09 00:22:41;;;;;;;10.55;5.78;;;4.20;99.90;;;;;;5132183;27;20047;-81
2022/01/09 00:25:07;;;;;;;10.43;6.30;;;3.80;99.90;;;;;;5113676;27;20043;-81
2022/01/09 00:27:33;;;;;;;;;;;3.80;99.90;;;;;;5098239;27;20038;-81
2022/01/09 00:29:59;;;;;;;9.27;5.50;;;3.90;99.90;;;;;;5130821;27;19945;-81
2022/01/09 00:32:25;;;;;;;11.93;6.25;;;3.90;99.90;;;;;;5114096;27;20122;-81
2022/01/09 00:34:50;;;;;;;9.68;5.63;;;3.80;99.90;;;;;;5134493;27;20062;-81
2022/01/09 00:37:16;;;;;;;9.25;5.50;;;3.80;99.90;;;;;;5131322;27;20053;-81
2022/01/09 00:39:42;;;;;;;10.13;5.50;;;3.80;99.90;;;;;;5123961;27;20047;-81
2022/01/09 00:42:07;;;;;;;12.18;6.00;;;3.80;99.90;;;;;;5115222;27;20479;-81
2022/01/09 00:44:33;;;;;;;10.63;6.03;;;3.80;99.90;;;;;;5114698;27;20046;-81
2022/01/09 00:47:00;;;;;;;9.43;5.50;;;3.80;99.90;;;;;;5135209;27;20059;-81
2022/01/09 00:49:27;;;;;;;10.07;5.50;;;3.80;99.90;;;;;;5117931;27;20498;-81
2022/01/09 00:51:53;;;;;;;9.88;5.28;;;3.80;99.90;;;;;;5135336;27;20039;-81
2022/01/09 00:54:18;;;;;;;9.95;5.30;;;3.90;99.90;;;;;;5131339;27;20388;-82
2022/01/09 00:56:44;;;;;;;9.45;5.50;;;3.80;99.90;;;;;;5117532;27;20051;-82
2022/01/09 00:59:10;;;;;;;9.40;5.68;;;3.90;99.90;;;;;;5133863;27;20039;-81
2022/01/09 01:01:35;;;;;;;11.43;6.57;;;3.90;99.90;;;;;;5134239;27;20078;-81
2022/01/09 01:04:01;;;;;;;9.32;5.80;;;3.90;99.90;;;;;;5118249;27;20050;-81
2022/01/09 01:06:27;;;;;;;8.95;5.63;;;3.80;99.90;;;;;;5117386;27;20056;-81
2022/01/09 01:08:52;;;;;;;11.25;5.80;;;3.90;99.90;;;;;;5134898;27;20407;-81
2022/01/09 01:11:20;;;;;;;10.65;6.40;;;3.90;99.90;;;;;;5134588;27;20054;-85
2022/01/09 01:13:45;;;;;;;11.07;6.45;;;3.90;99.90;;;;;;5114772;27;20035;-81
2022/01/09 01:16:11;;;;;;;11.30;6.57;;;3.90;99.90;;;;;;5100533;27;20051;-81
2022/01/09 01:18:37;;;;;;;11.18;6.57;;;3.90;99.90;;;;;;5134380;27;20050;-81
2022/01/09 01:21:03;;;;;;;11.73;6.95;;;3.90;99.90;;;;;;5122095;27;20046;-82
2022/01/09 01:23:29;;;;;;;9.75;6.15;;;3.90;99.90;;;;;;5120124;27;20559;-83
2022/01/09 01:26:00;;;;;;;10.70;6.45;;;3.90;99.90;;;;;;5126425;27;20495;-81
2022/01/09 01:28:26;;;;;;;10.70;6.45;;;3.90;99.90;;;;;;5142087;27;20111;-84
2022/01/09 01:30:51;;;;;;;12.25;6.70;;;3.90;99.90;;;;;;5133262;27;20046;-81
2022/01/09 01:33:17;;;;;;;9.68;5.90;;;4.10;99.90;;;;;;5133954;27;20049;-82
2022/01/09 01:35:43;;;;;;;11.25;6.60;;;3.90;99.90;;;;;;5132362;27;20134;-81
2022/01/09 01:38:09;;;;;;;11.07;6.57;;;4.10;99.90;;;;;;5113477;27;20051;-81
2022/01/09 01:40:35;;;;;;;11.82;7.50;;;3.90;99.90;;;;;;5097232;27;20046;-81
2022/01/09 01:43:00;;;;;;;12.68;7.38;;;3.90;99.90;;;;;;5134542;27;20034;-81
2022/01/09 01:45:26;;;;;;;13.07;7.40;;;4.30;99.90;;;;;;5132538;27;20042;-81
2022/01/09 01:47:52;;;;;;;14.25;8.23;;;3.90;99.90;;;;;;5134032;27;20103;-81
2022/01/09 01:50:19;;;;;;;13.82;7.60;;;3.90;99.90;;;;;;5134323;27;20054;-81
2022/01/09 01:52:48;;;;;;;14.00;8.00;;;3.90;99.90;;;;;;5116496;27;20057;-81
2022/01/09 01:55:15;;;;;;;15.77;9.32;;;3.90;99.90;;;;;;5134046;27;20494;-81
2022/01/09 01:57:43;;;;;;;16.10;8.57;;;4.00;99.90;;;;;;5131498;27;20125;-81
2022/01/09 02:00:12;;;;;;;17.35;9.32;;;3.90;99.90;;;;;;5132750;27;20051;-81
2022/01/09 02:02:39;;;;;;;17.83;10.52;;;3.90;99.90;;;;;;5133297;27;20395;-81
2022/01/09 02:05:05;;;;;;;17.63;10.13;;;3.90;99.90;;;;;;5134117;27;20092;-81
2022/01/09 02:07:31;;;;;;;;;;;3.90;99.90;;;;;;5134212;27;20050;-81
2022/01/09 02:09:57;;;;;;;18.55;11.30;;;3.90;99.90;;;;;;5116761;27;19926;-81
2022/01/09 02:12:23;;;;;;;21.67;12.02;;;4.30;99.90;;;;;;5134242;27;20046;-81
2022/01/09 02:14:48;;;;;;;21.73;12.73;;;3.90;99.90;;;;;;5132053;27;20051;-81
2022/01/09 02:17:21;;;;;;;22.30;12.70;;;3.90;99.90;;;;;;5131039;27;20066;-82
2022/01/09 02:19:58;;;;;;;20.88;12.77;;;3.90;99.90;;;;;;5133477;27;20676;-81
2022/01/09 02:22:27;;;;;;;;;;;3.90;99.90;;;;;;5134517;27;20253;-81
2022/01/09 02:24:52;;;;;;;23.60;14.00;;;3.90;99.90;;;;;;5133654;27;19926;-80
2022/01/09 02:27:19;;;;;;;26.95;15.05;;;3.90;99.90;;;;;;5133957;27;20380;-81
2022/01/09 02:29:45;;;;;;;;;;;3.90;99.90;;;;;;5115794;28;20097;-82
2022/01/09 02:32:10;;;;;;;30.35;15.63;;;3.90;99.90;;;;;;5113010;28;19942;-81
2022/01/09 02:34:36;;;;;;;27.85;15.80;;;3.90;99.90;;;;;;5114545;27;20476;-81
2022/01/09 02:37:02;;;;;;;32.20;17.02;;;3.90;99.90;;;;;;5092993;28;20048;-81
2022/01/09 02:39:28;;;;;;;27.92;16.40;;;3.90;99.90;;;;;;5109087;28;20089;-84
2022/01/09 02:41:53;;;;;;;30.05;16.42;;;3.90;99.90;;;;;;5109696;28;20055;-81
2022/01/09 02:44:19;;;;;;;33.22;17.35;;;3.90;99.90;;;;;;5108375;28;20512;-81
2022/01/09 02:49:48;;;;;;;30.70;16.70;;;3.90;99.90;;;;;;5076968;28;20048;-82
2022/01/09 02:52:29;;;;;;;32.15;17.15;;;3.90;99.90;;;;;;5113914;28;20428;-81
2022/01/09 02:55:14;;;;;;;30.63;16.98;;;3.90;99.90;;;;;;5113528;28;20048;-80
2022/01/09 02:57:49;;;;;;;32.53;15.05;;;4.20;99.90;;;;;;5098718;28;20488;-81
2022/01/09 03:00:24;;;;;;;32.40;14.63;;;3.90;99.90;;;;;;5111981;28;20055;-81
2022/01/09 03:02:50;;;;;;;31.48;16.35;;;3.90;99.90;;;;;;5112837;28;20632;-81
2022/01/09 03:05:15;;;;;;;33.13;16.48;;;4.00;99.90;;;;;;5113822;28;20093;-80
2022/01/09 03:07:43;;;;;;;34.45;15.73;;;3.90;99.90;;;;;;5100463;28;20127;-81
2022/01/09 03:10:10;;;;;;;35.97;16.75;;;4.10;99.90;;;;;;5091053;28;20054;-81
2022/01/09 03:12:36;;;;;;;32.63;15.70;;;4.00;99.90;;;;;;5092356;28;20132;-81
2022/01/09 03:15:03;;;;;;;35.55;16.13;;;4.00;99.90;;;;;;5091838;28;20111;-80
2022/01/09 03:17:29;;;;;;;30.52;14.63;;;4.00;99.90;;;;;;5092519;28;20044;-84
2022/01/09 03:19:55;;;;;;;28.42;13.10;;;4.00;99.90;;;;;;5088481;28;20044;-81
2022/01/09 03:22:21;;;;;;;31.42;13.93;;;4.10;99.90;;;;;;5112868;28;20047;-81
2022/01/09 03:24:47;;;;;;;32.75;14.00;;;4.60;99.90;;;;;;5111632;28;20473;-81
2022/01/09 03:27:13;;;;;;;31.60;13.48;;;4.10;99.90;;;;;;5096202;28;20393;-80
2022/01/09 03:29:39;;;;;;;31.23;13.02;;;4.10;99.90;;;;;;5094198;28;20405;-80
2022/01/09 03:32:05;;;;;;;;;;;4.50;99.90;;;;;;5113267;28;20048;-80
2022/01/09 03:34:31;;;;;;;27.27;12.68;;;4.10;99.90;;;;;;5110362;28;19935;-84
2022/01/09 03:36:57;;;;;;;27.13;11.40;;;4.10;99.90;;;;;;5117597;27;20047;-81
2022/01/09 03:39:22;;;;;;;29.35;12.10;;;4.10;99.90;;;;;;5153122;27;20047;-81
2022/01/09 03:41:48;;;;;;;26.98;12.35;;;4.60;99.90;;;;;;5119495;27;20061;-80
2022/01/09 03:44:14;;;;;;;30.00;11.98;;;4.20;99.90;;;;;;5135540;27;20043;-82
2022/01/09 03:46:39;;;;;;;27.70;10.90;;;4.20;99.90;;;;;;5135927;27;20494;-81
2022/01/09 03:49:05;;;;;;;27.75;11.15;;;4.20;99.90;;;;;;5136790;27;20046;-81
2022/01/09 03:51:37;;;;;;;28.23;10.73;;;4.30;99.90;;;;;;5119445;27;20126;-80
2022/01/09 03:54:04;;;;;;;28.35;10.90;;;4.70;99.90;;;;;;5136469;27;20130;-81
2022/01/09 03:56:30;;;;;;;29.85;10.95;;;4.40;99.90;;;;;;5100013;27;20055;-81
2022/01/09 03:58:56;;;;;;;26.60;10.02;;;4.40;99.90;;;;;;5133580;27;20053;-82
2022/01/09 04:01:22;;;;;;;27.52;9.75;;;4.40;99.90;;;;;;5136142;27;20086;-81
2022/01/09 04:03:47;;;;;;;24.65;9.27;;;4.50;99.90;;;;;;5115285;27;20047;-81
2022/01/09 04:06:13;;;;;;;27.73;7.00;;;4.60;99.90;;;;;;5099074;27;20047;-82
2022/01/09 04:08:39;;;;;;;32.25;6.95;;;4.60;99.90;;;;;;5119673;27;20046;-81
2022/01/09 04:11:06;;;;;;;29.13;6.78;;;4.60;99.90;;;;;;5119272;27;20078;-81
2022/01/09 04:13:32;;;;;;;27.45;6.85;;;4.70;99.90;;;;;;5117800;27;20406;-82
2022/01/09 04:15:58;;;;;;;32.70;5.85;;;4.70;99.90;;;;;;5135498;27;20042;-81
2022/01/09 04:18:24;;;;;;;43.72;5.90;;;4.80;99.90;;;;;;5135457;27;20054;-82
2022/01/09 04:20:51;;;;;;;36.60;4.45;;;4.90;99.90;;;;;;5116200;27;20429;-81
2022/01/09 04:23:20;;;;;;;38.42;5.07;;;5.00;99.90;;;;;;5135933;27;20480;-82
2022/01/09 04:25:47;;;;;;;51.22;6.78;;;5.00;99.90;;;;;;5135404;27;20058;-82
2022/01/09 04:28:14;;;;;;;51.88;5.30;;;5.10;99.90;;;;;;5135327;27;20054;-80
2022/01/09 04:30:40;;;;;;;35.35;4.78;;;5.20;99.90;;;;;;5117187;27;20051;-81
2022/01/09 04:33:06;;;;;;;46.33;6.28;;;5.40;99.90;;;;;;5135645;27;20503;-81
2022/01/09 04:35:32;;;;;;;38.33;5.53;;;5.40;99.90;;;;;;5135799;27;20058;-82
2022/01/09 04:37:58;;;;;;;39.97;4.97;;;5.40;99.90;;;;;;5114485;27;20047;-81
2022/01/09 04:40:24;;;;;;;47.28;5.82;;;5.40;99.90;;;;;;5127651;27;20057;-81
2022/01/09 04:42:57;;;;;;;36.58;4.25;;;5.40;99.90;;;;;;5135048;27;20042;-81
2022/01/09 04:45:24;;;;;;;39.05;4.32;;;5.50;99.90;;;;;;5134244;27;20127;-81
2022/01/09 04:47:51;;;;;;;36.72;5.45;;;5.80;99.90;;;;;;5118231;27;20054;-81
2022/01/09 04:50:23;;;;;;;43.55;5.43;;;5.50;99.90;;;;;;5135749;27;20054;-81
2022/01/09 04:52:52;;;;;;;31.17;4.72;;;5.60;99.90;;;;;;5134949;27;20047;-81
2022/01/09 04:55:18;;;;;;;31.90;4.20;;;5.60;99.90;;;;;;5118359;27;20491;-81
2022/01/09 04:57:43;;;;;;;40.58;5.13;;;5.60;99.90;;;;;;5134872;27;20089;-82
2022/01/09 05:00:10;;;;;;;46.65;4.85;;;5.60;99.90;;;;;;5133807;27;20142;-81
2022/01/09 05:02:35;;;;;;;;;;;5.60;99.90;;;;;;5135367;27;20058;-81
2022/01/09 05:05:02;;;;;;;37.88;4.15;;;5.50;99.90;;;;;;5134730;27;19919;-82
2022/01/09 05:07:28;;;;;;;30.10;4.88;;;5.50;99.90;;;;;;5135604;27;20138;-82
2022/01/09 05:09:53;;;;;;;28.70;3.53;;;5.60;99.90;;;;;;5117295;27;20137;-82
2022/01/09 05:12:19;;;;;;;28.50;2.95;;;5.60;99.90;;;;;;5153010;27;20038;-81
2022/01/09 05:14:45;;;;;;;26.02;3.90;;;5.60;99.90;;;;;;5116198;27;20053;-82
2022/01/09 05:17:11;;;;;;;29.88;4.07;;;5.60;99.90;;;;;;5134713;27;20042;-81
2022/01/09 05:19:37;;;;;;;35.88;4.43;;;5.60;99.90;;;;;;5135093;27;20046;-82
2022/01/09 05:22:03;;;;;;;34.28;4.03;;;5.60;99.90;;;;;;5132436;27;20529;-82
2022/01/09 05:24:29;;;;;;;27.38;3.90;;;5.50;99.90;;;;;;5134719;27;20055;-81
2022/01/09 05:26:54;;;;;;;30.95;3.63;;;5.50;99.90;;;;;;5134352;27;20053;-82
2022/01/09 05:29:21;;;;;;;33.63;3.70;;;5.50;99.90;;;;;;5116220;27;20046;-82
2022/01/09 05:31:50;;;;;;;28.35;5.15;;;5.50;99.90;;;;;;5116811;27;20045;-81
2022/01/09 05:34:16;;;;;;;27.27;4.00;;;5.50;99.90;;;;;;5117678;27;20058;-81
2022/01/09 05:36:42;;;;;;;16.95;3.53;;;5.50;99.90;;;;;;5134384;27;20410;-81
2022/01/09 05:39:08;;;;;;;34.72;4.28;;;5.50;99.90;;;;;;5115864;27;20042;-81
2022/01/09 05:41:34;;;;;;;18.27;3.83;;;5.50;99.90;;;;;;5134723;27;20058;-81
2022/01/09 05:44:00;;;;;;;28.20;3.33;;;5.50;99.90;;;;;;5132707;27;20077;-81
2022/01/09 05:46:26;;;;;;;19.80;2.75;;;5.40;99.90;;;;;;5134395;27;20062;-82
2022/01/09 05:48:51;;;;;;;28.98;3.33;;;5.80;99.90;;;;;;5134114;27;20357;-81
2022/01/09 05:51:17;;;;;;;19.92;3.42;;;5.50;99.90;;;;;;5133911;27;20043;-81
2022/01/09 05:53:43;;;;;;;25.20;3.28;;;5.60;99.90;;;;;;5133897;27;20046;-81
2022/01/09 05:56:09;;;;;;;20.65;3.10;;;5.40;99.90;;;;;;5116802;27;20062;-82
2022/01/09 05:58:35;;;;;;;18.48;2.58;;;5.30;99.90;;;;;;5133147;27;20072;-82
2022/01/09 06:01:02;;;;;;;;;;;5.30;99.90;;;;;;5100018;27;20050;-81
2022/01/09 06:03:28;;;;;;;17.55;2.47;;;5.30;99.90;;;;;;5114819;27;20018;-81
2022/01/09 06:05:54;;;;;;;22.33;2.65;;;5.30;99.90;;;;;;5133843;27;20133;-82
2022/01/09 06:08:19;;;;;;;16.88;3.33;;;5.20;99.90;;;;;;5134315;27;20073;-81
2022/01/09 06:10:45;;;;;;;28.50;3.75;;;5.30;99.90;;;;;;5134146;27;20161;-82
2022/01/09 06:13:11;;;;;;;21.15;3.25;;;5.20;99.90;;;;;;5133098;27;20110;-81
2022/01/09 06:15:36;;;;;;;19.30;3.00;;;5.20;99.90;;;;;;5133392;27;20038;-81
2022/01/09 06:18:02;;;;;;;20.20;4.03;;;5.20;99.90;;;;;;5122059;28;20365;-82
2022/01/09 06:20:28;;;;;;;24.20;3.72;;;5.20;99.90;;;;;;5113805;28;20039;-82
2022/01/09 06:22:54;;;;;;;18.98;2.58;;;5.20;99.90;;;;;;5112956;28;20039;-81
2022/01/09 06:25:21;;;;;;;17.40;2.70;;;5.20;99.90;;;;;;5100000;27;20515;-81
2022/01/09 06:27:47;;;;;;;21.75;2.85;;;5.20;99.90;;;;;;5138071;27;20373;-81
2022/01/09 06:30:13;;;;;;;;;;;5.10;99.90;;;;;;5134190;27;20051;-81
2022/01/09 06:32:39;;;;;;;20.27;4.05;;;5.20;99.90;;;;;;5137470;27;20287;-81
2022/01/09 06:35:06;;;;;;;20.10;2.50;;;5.40;99.90;;;;;;5136878;27;20142;-81
2022/01/09 06:37:32;;;;;;;21.88;2.35;;;5.10;99.90;;;;;;5120481;27;20054;-81
2022/01/09 06:39:58;;;;;;;29.20;3.08;;;5.10;99.90;;;;;;5119370;27;20122;-81
2022/01/09 06:42:23;;;;;;;21.80;2.63;;;5.10;99.90;;;;;;5138090;27;20138;-80
2022/01/09 06:44:49;;;;;;;24.45;3.03;;;5.10;99.90;;;;;;5136709;27;20043;-81
2022/01/09 06:47:15;;;;;;;20.45;2.67;;;5.10;99.90;;;;;;5120251;27;20042;-81
2022/01/09 06:49:41;;;;;;;18.02;2.50;;;5.20;99.90;;;;;;5135934;27;20053;-81
2022/01/09 06:52:06;;;;;;;18.70;2.60;;;5.20;99.90;;;;;;5119544;27;20085;-82
2022/01/09 06:54:32;;;;;;;17.80;2.80;;;5.20;99.90;;;;;;5137404;27;20042;-83
2022/01/09 06:56:58;;;;;;;22.60;3.28;;;5.20;99.90;;;;;;5120107;27;20046;-81
2022/01/09 06:59:24;;;;;;;22.60;2.78;;;5.20;99.90;;;;;;5136057;27;20042;-80
2022/01/09 07:01:50;;;;;;;23.33;2.85;;;5.20;99.90;;;;;;5155790;27;20117;-82
2022/01/09 07:04:16;;;;;;;21.10;2.97;;;5.20;99.90;;;;;;5137516;27;20116;-81
2022/01/09 07:06:42;;;;;;;22.65;3.10;;;5.20;99.90;;;;;;5120705;27;20476;-81
2022/01/09 07:09:08;;;;;;;20.90;2.40;;;5.10;99.90;;;;;;5119455;27;20054;-82
2022/01/09 07:11:34;;;;;;;;;;;5.10;99.90;;;;;;5138213;27;20090;-81
2022/01/09 07:14:00;;;;;;;20.13;3.28;;;5.30;99.90;;;;;;5134862;27;19987;-81
2022/01/09 07:16:25;;;;;;;;;;;5.10;99.90;;;;;;5137359;27;20096;-81
2022/01/09 07:18:51;;;;;;;15.52;3.00;;;5.10;99.90;;;;;;5120208;27;19923;-82
2022/01/09 07:21:17;;;;;;;17.25;3.17;;;5.10;99.90;;;;;;5137095;27;20045;-81
2022/01/09 07:23:43;;;;;;;12.57;2.45;;;5.20;99.90;;;;;;5136667;27;20053;-81
2022/01/09 07:26:09;;;;;;;18.70;3.20;;;5.60;99.90;;;;;;5119711;27;20102;-81
2022/01/09 07:28:34;;;;;;;17.55;2.58;;;5.00;99.90;;;;;;5135965;27;20057;-81
2022/01/09 07:31:00;;;;;;;14.05;2.55;;;5.10;99.90;;;;;;5136733;27;20088;-84
2022/01/09 07:33:26;;;;;;;13.15;2.05;;;5.00;99.90;;;;;;5136464;27;20134;-81
2022/01/09 07:35:52;;;;;;;13.68;2.25;;;4.90;99.90;;;;;;5115509;27;20142;-81
2022/01/09 07:38:17;;;;;;;15.00;1.95;;;4.90;99.90;;;;;;5132624;27;20043;-81
2022/01/09 07:40:43;;;;;;;13.88;2.08;;;4.90;99.90;;;;;;5084380;28;20062;-81
2022/01/09 07:43:09;;;;;;;10.60;1.90;;;5.50;99.90;;;;;;5111837;28;20139;-82
2022/01/09 07:45:35;;;;;;;13.20;2.35;;;5.00;99.90;;;;;;5111927;28;20039;-81
2022/01/09 07:48:01;;;;;;;18.80;2.30;;;4.80;99.90;;;;;;5111941;28;20493;-85
2022/01/09 07:50:27;;;;;;;8.20;1.77;;;5.60;99.90;;;;;;5124937;27;20130;-81
2022/01/09 07:52:54;;;;;;;8.65;2.22;;;4.80;99.90;;;;;;5133160;27;20046;-80
2022/01/09 07:55:20;;;;;;;9.90;1.70;;;5.00;99.90;;;;;;5132548;27;20507;-81
2022/01/09 07:57:47;;;;;;;9.23;1.73;;;4.70;99.90;;;;;;5116105;27;20057;-81
2022/01/09 08:00:14;;;;;;;8.18;1.58;;;4.70;99.90;;;;;;5114207;27;20392;-81
2022/01/09 08:02:41;;;;;;;12.48;2.05;;;4.60;99.90;;;;;;5115755;27;20135;-81
2022/01/09 08:05:08;;;;;;;14.20;1.95;;;4.60;99.90;;;;;;5132703;27;20051;-81
2022/01/09 08:07:33;;;;;;;10.13;1.30;;;4.70;99.90;;;;;;5133137;27;20050;-81
2022/01/09 08:09:59;;;;;;;16.48;2.58;;;4.70;99.90;;;;;;5133880;27;20480;-81
2022/01/09 08:12:25;;;;;;;9.15;1.80;;;4.80;99.90;;;;;;5132249;27;20053;-81
2022/01/09 08:14:50;;;;;;;11.88;1.60;;;4.70;99.90;;;;;;5114559;27;20138;-81
2022/01/09 08:17:16;;;;;;;11.27;1.70;;;4.90;99.90;;;;;;5111190;28;20051;-82
2022/01/09 08:19:42;;;;;;;9.10;1.73;;;4.60;99.90;;;;;;5131982;27;20047;-82
2022/01/09 08:22:08;;;;;;;9.48;1.50;;;4.60;99.90;;;;;;5114245;27;20491;-81
2022/01/09 08:24:34;;;;;;;;;;;4.60;99.90;;;;;;5122062;27;20123;-82
2022/01/09 08:27:01;;;;;;;6.90;1.60;;;4.60;99.90;;;;;;5132854;27;19919;-81
2022/01/09 08:29:27;;;;;;;9.52;2.05;;;4.60;99.90;;;;;;5113792;27;20050;-81
2022/01/09 08:31:53;;;;;;;9.52;2.00;;;4.80;99.90;;;;;;5132267;27;20549;-80
2022/01/09 08:34:19;;;;;;;;;;;4.70;99.90;;;;;;5132642;27;20109;-81
2022/01/09 08:36:45;;;;;;;7.75;1.52;;;4.60;99.90;;;;;;5103629;27;19966;-81
2022/01/09 08:39:11;;;;;;;10.63;1.95;;;4.60;99.90;;;;;;5097028;28;20086;-80
2022/01/09 08:41:37;;;;;;;8.07;1.70;;;4.70;99.90;;;;;;5094906;28;20063;-81
2022/01/09 08:44:04;;;;;;;;;;;4.70;99.90;;;;;;5110843;28;20482;-79
2022/01/09 08:46:34;;;;;;;;;;;4.70;99.90;;;;;;5110440;28;20007;-82
2022/01/09 08:49:01;;;;;;;8.25;1.88;;;4.80;99.90;;;;;;5114476;27;19923;-81
2022/01/09 08:51:28;;;;;;;12.02;1.50;;;4.70;99.90;;;;;;5130626;27;20047;-85
2022/01/09 08:53:54;;;;;;;12.73;1.90;;;4.70;99.90;;;;;;5125305;27;20053;-81
2022/01/09 08:56:20;;;;;;;;;;;4.70;99.90;;;;;;5131837;27;20050;-81
2022/01/09 08:58:47;;;;;;;11.73;1.50;;;4.70;99.90;;;;;;5130438;27;19985;-81
2022/01/09 09:01:13;;;;;;;8.52;1.40;;;4.70;99.90;;;;;;5113866;27;20043;-81
2022/01/09 09:03:41;;;;;;;;;;;4.70;99.90;;;;;;5131946;27;20134;-81
2022/01/09 09:06:12;;;;;;;8.80;1.75;;;4.70;99.90;;;;;;5114556;27;19926;-84
2022/01/09 09:08:39;;;;;;;11.07;1.90;;;4.80;99.90;;;;;;5131569;27;20055;-81
2022/01/09 09:11:06;;;;;;;;;;;4.80;99.90;;;;;;5132204;27;20035;-82
2022/01/09 09:13:31;;;;;;;;;;;4.80;99.90;;;;;;5130534;27;20404;-83
2022/01/09 09:15:58;;;;;;;13.05;1.73;;;4.80;99.90;;;;;;5131285;27;20006;-81
2022/01/09 09:18:23;;;;;;;;;;;4.80;99.90;;;;;;5113905;27;20388;-81
2022/01/09 09:20:49;;;;;;;7.10;2.13;;;4.80;99.90;;;;;;5131483;27;19923;-81
2022/01/09 09:23:15;;;;;;;8.07;1.50;;;5.20;99.90;;;;;;5113825;27;20058;-81
2022/01/09 09:25:40;;;;;;;9.73;1.90;;;4.90;99.90;;;;;;5130590;27;20043;-81
2022/01/09 09:28:06;;;;;;;4.28;1.50;;;4.90;99.90;;;;;;5131131;27;20070;-83
2022/01/09 09:30:32;;;;;;;13.23;2.40;;;4.90;99.90;;;;;;5123411;27;20040;-81
2022/01/09 09:32:58;;;;;;;6.32;1.65;;;5.50;99.90;;;;;;5130241;27;20042;-81
2022/01/09 09:35:24;;;;;;;13.18;2.20;;;4.90;99.90;;;;;;5130592;27;20055;-81
2022/01/09 09:37:51;;;;;;;13.52;2.13;;;5.00;99.90;;;;;;5131096;27;20107;-81
2022/01/09 09:40:17;;;;;;;10.82;2.58;;;5.20;99.90;;;;;;5130359;27;20430;-81
2022/01/09 09:42:43;;;;;;;9.68;2.00;;;5.00;99.90;;;;;;5114089;27;20065;-81
2022/01/09 09:45:09;;;;;;;;;;;5.00;99.90;;;;;;5129982;27;20043;-83
2022/01/09 09:47:37;;;;;;;17.42;2.50;;;5.00;99.90;;;;;;5129993;27;20288;-81
2022/01/09 09:50:11;;;;;;;9.23;2.22;;;5.20;99.90;;;;;;5106855;27;20051;-82
2022/01/09 09:52:36;;;;;;;15.07;2.80;;;5.00;99.90;;;;;;5124178;27;20075;-81
2022/01/09 09:55:03;;;;;;;13.25;2.20;;;5.00;99.90;;;;;;5130684;27;20542;-82
2022/01/09 09:57:29;;;;;;;11.93;1.85;;;5.00;99.90;;;;;;5129794;27;20047;-82
2022/01/09 10:00:00;;;;;;;7.55;2.13;;;5.00;99.90;;;;;;5129018;27;20051;-81
2022/01/09 10:02:25;;;;;;;16.20;2.25;;;5.00;99.90;;;;;;5129691;27;20047;-83
2022/01/09 10:05:04;;;;;;;10.98;2.15;;;5.00;99.90;;;;;;5129580;27;20046;-81
2022/01/09 10:07:30;;;;;;;11.20;1.80;;;5.00;99.90;;;;;;5112987;28;20054;-81
2022/01/09 10:09:59;;;;;;;10.93;2.42;;;5.10;99.90;;;;;;5129625;27;20039;-81
2022/01/09 10:12:27;;;;;;;10.82;2.00;;;5.10;99.90;;;;;;5129635;27;20050;-82
2022/01/09 10:14:55;;;;;;;15.70;2.60;;;5.30;99.90;;;;;;5129238;27;20130;-82
2022/01/09 10:17:22;;;;;;;12.35;2.97;;;5.10;99.90;;;;;;5129687;27;20059;-81
2022/01/09 10:19:48;;;;;;;5.68;1.95;;;5.20;99.90;;;;;;5130118;27;20047;-81
2022/01/09 10:22:30;;;;;;;13.73;2.75;;;5.30;99.90;;;;;;5130329;28;20388;-84
2022/01/09 10:24:56;;;;;;;8.38;1.73;;;5.20;99.90;;;;;;5129812;28;20054;-82
2022/01/09 10:27:38;;;;;;;12.82;1.95;;;5.20;99.90;;;;;;5129614;28;20051;-81
2022/01/09 10:30:05;;;;;;;12.32;2.33;;;5.50;99.90;;;;;;5127911;28;20750;-81
2022/01/09 10:32:32;;;;;;;9.07;2.15;;;5.20;99.90;;;;;;5112174;28;20539;-82
2022/01/09 10:35:11;;;;;;;7.25;1.70;;;5.20;99.90;;;;;;5113213;27;20050;-82
2022/01/09 10:37:38;;;;;;;8.05;1.55;;;5.20;99.90;;;;;;5132853;27;20467;-83
2022/01/09 10:40:08;;;;;;;12.95;2.00;;;5.20;99.90;;;;;;5133156;27;20483;-82
2022/01/09 10:42:34;;;;;;;7.57;2.17;;;5.30;99.90;;;;;;5132881;27;20077;-81
2022/01/09 10:45:42;;;;;;;8.40;2.17;;;5.40;99.90;;;;;;5131817;27;20047;-81
2022/01/09 10:48:19;;;;;;;15.75;2.45;;;5.30;99.90;;;;;;5050504;28;20143;-83
2022/01/09 10:50:45;;;;;;;;;;;5.30;99.90;;;;;;5128400;27;20065;-82
2022/01/09 10:53:29;;;;;;;14.65;2.50;;;5.30;99.90;;;;;;5132987;27;19919;-81
2022/01/09 10:56:20;;;;;;;13.27;2.08;;;5.30;99.90;;;;;;5116377;27;20043;-82
2022/01/09 10:58:57;;;;;;;9.85;2.00;;;5.40;99.90;;;;;;5131600;27;20498;-82
2022/01/09 11:01:24;;;;;;;7.40;1.70;;;5.40;99.90;;;;;;5132738;27;20432;-81
2022/01/09 11:03:58;;;;;;;12.90;2.78;;;5.40;99.90;;;;;;5116339;27;20050;-82
2022/01/09 11:06:27;;;;;;;9.23;1.95;;;5.40;99.90;;;;;;5132162;27;20078;-81
2022/01/09 11:08:54;;;;;;;11.57;1.77;;;5.40;99.90;;;;;;5132833;27;20039;-82
2022/01/09 11:13:54;;;;;;;20.35;2.92;;;5.60;99.90;;;;;;5134109;27;20050;-80
2022/01/09 11:16:40;;;;;;;13.02;2.33;;;5.70;99.90;;;;;;5136334;27;20623;-83
2022/01/09 11:19:07;;;;;;;7.77;1.80;;;5.70;99.90;;;;;;5120354;27;20051;-80
2022/01/09 11:21:39;;;;;;;13.93;2.03;;;5.80;99.90;;;;;;5133314;27;20487;-80
2022/01/09 11:24:23;;;;;;;13.20;2.10;;;5.80;99.90;;;;;;5136846;27;20099;-81
2022/01/09 11:27:01;;;;;;;18.33;2.42;;;6.00;99.90;;;;;;5135739;27;20106;-81
2022/01/09 11:29:53;;;;;;;12.73;1.98;;;6.00;99.90;;;;;;5134891;27;20058;-81
2022/01/09 11:32:44;;;;;;;16.02;2.47;;;6.10;99.90;;;;;;5118526;27;20548;-83
2022/01/09 11:35:28;;;;;;;13.70;1.98;;;6.20;99.90;;;;;;5130361;27;20073;-81
2022/01/09 11:38:16;;;;;;;12.50;2.08;;;6.30;99.90;;;;;;5128984;27;20122;-81
2022/01/09 11:40:42;;;;;;;9.98;2.38;;;6.40;99.90;;;;;;5110469;27;20051;-82
2022/01/09 11:43:14;;;;;;;10.45;1.80;;;6.40;99.90;;;;;;5114869;27;20171;-83
2022/01/09 11:45:55;;;;;;;10.68;2.88;;;6.50;99.90;;;;;;5131683;27;20046;-81
2022/01/09 11:48:40;;;;;;;12.15;1.75;;;6.50;99.90;;;;;;5129316;27;20085;-82
2022/01/09 11:51:06;;;;;;;13.75;2.60;;;6.40;99.90;;;;;;5130486;27;20089;-82
2022/01/09 11:53:56;;;;;;;10.23;2.20;;;6.40;99.90;;;;;;5132014;27;20062;-81
2022/01/09 11:56:41;;;;;;;17.33;2.33;;;6.40;99.90;;;;;;5125235;27;20043;-84
2022/01/09 11:59:15;;;;;;;8.15;2.20;;;6.40;99.90;;;;;;5113172;27;20108;-81
2022/01/09 12:01:41;;;;;;;13.77;2.30;;;6.40;99.90;;;;;;5121939;27;20043;-81
2022/01/09 12:04:36;;;;;;;12.45;1.80;;;6.40;99.90;;;;;;5120281;27;20043;-81
2022/01/09 12:07:08;;;;;;;13.55;2.22;;;6.30;99.90;;;;;;5120675;27;20074;-81
2022/01/09 12:09:47;;;;;;;10.98;2.20;;;6.30;99.90;;;;;;5132680;27;20051;-83
2022/01/09 12:12:34;;;;;;;15.13;2.22;;;6.30;99.90;;;;;;5127194;27;20054;-80
2022/01/09 12:15:04;;;;;;;16.08;2.20;;;6.30;99.90;;;;;;5129862;27;20149;-81
2022/01/09 12:17:33;;;;;;;13.98;2.53;;;6.60;99.90;;;;;;5113423;27;20100;-82
2022/01/09 12:20:09;;;;;;;15.85;2.40;;;6.50;99.90;;;;;;5131687;27;20095;-82
2022/01/09 12:22:50;;;;;;;12.38;2.10;;;6.60;99.90;;;;;;5125701;27;20480;-81
2022/01/09 12:25:21;;;;;;;18.00;2.55;;;6.80;99.90;;;;;;5133621;27;20095;-81
2022/01/09 12:27:48;;;;;;;15.65;2.63;;;6.80;99.90;;;;;;5133258;27;20122;-81
2022/01/09 12:30:41;;;;;;;14.10;2.80;;;6.80;99.90;;;;;;5112857;27;20087;-81
2022/01/09 12:33:25;;;;;;;16.83;2.60;;;6.80;99.90;;;;;;5125781;27;20167;-82
2022/01/09 12:35:57;;;;;;;10.68;2.47;;;7.10;99.90;;;;;;5102559;28;20416;-82
2022/01/09 12:38:25;;;;;;;12.30;2.05;;;7.50;99.90;;;;;;5111141;28;20155;-77
2022/01/09 12:41:01;;;;;;;14.25;2.45;;;7.80;99.90;;;;;;5108225;28;20118;-79
2022/01/09 12:43:29;;;;;;;12.77;2.58;;;8.00;99.90;;;;;;5108033;28;20051;-80
2022/01/09 12:45:54;;;;;;;14.48;1.73;;;8.10;99.90;;;;;;5100928;27;20047;-78
2022/01/09 12:48:27;;;;;;;10.63;2.05;;;8.20;99.90;;;;;;5111107;28;20151;-78
2022/01/09 12:50:54;;;;;;;14.95;2.13;;;8.20;99.90;;;;;;5116183;27;20043;-79
2022/01/09 12:53:27;;;;;;;13.43;2.38;;;8.20;99.90;;;;;;5097915;27;20411;-79
2022/01/09 12:56:05;;;;;;;13.40;2.15;;;8.20;99.90;;;;;;5126925;27;20070;-78
2022/01/09 12:58:33;;;;;;;13.27;2.30;;;8.20;99.90;;;;;;5122771;27;20054;-80
2022/01/09 13:01:03;;;;;;;12.02;2.58;;;8.10;99.90;;;;;;5131657;27;20154;-80
2022/01/09 13:03:31;;;;;;;15.90;2.92;;;7.80;99.90;;;;;;5122535;27;20505;-80